createdAt,value
2022-11-17T00:02:19.701Z,9.49
2022-11-17T00:05:23.644Z,9.49
2022-11-17T00:08:26.120Z,9.49
2022-11-17T00:11:48.622Z,9.45
2022-11-17T00:14:52.065Z,9.50
2022-11-17T00:18:13.308Z,9.45
2022-11-17T00:21:18.946Z,9.51
2022-11-17T00:24:23.755Z,9.33
2022-11-17T00:27:26.157Z,9.42
2022-11-17T00:30:51.684Z,9.37
2022-11-17T00:34:08.007Z,9.49
2022-11-17T00:37:12.956Z,9.46
2022-11-17T00:40:15.349Z,9.40
2022-11-17T00:43:17.854Z,9.43
2022-11-17T00:46:20.227Z,9.42
2022-11-17T00:49:26.579Z,9.47
2022-11-17T00:52:28.785Z,9.47
2022-11-17T00:55:31.406Z,9.50
2022-11-17T00:58:35.477Z,9.44
2022-11-17T01:01:38.405Z,9.46
2022-11-17T01:04:40.720Z,9.34
2022-11-17T01:07:43.396Z,9.44
2022-11-17T01:10:48.687Z,9.44
2022-11-17T01:13:55.109Z,9.36
2022-11-17T01:16:57.364Z,9.43
2022-11-17T01:19:59.891Z,9.31
2022-11-17T01:23:02.119Z,9.31
2022-11-17T01:26:08.254Z,9.27
2022-11-17T01:29:13.118Z,9.36
2022-11-17T01:32:15.617Z,9.25
2022-11-17T01:35:17.897Z,9.33
2022-11-17T01:38:20.438Z,9.32
2022-11-17T01:41:25.230Z,9.30
2022-11-17T01:44:36.142Z,9.28
2022-11-17T01:47:40.626Z,9.28
2022-11-17T01:50:49.299Z,9.16
2022-11-17T01:53:52.049Z,9.25
2022-11-17T01:57:00.940Z,9.10
2022-11-17T02:00:08.631Z,9.23
2022-11-17T02:03:11.797Z,9.16
2022-11-17T02:06:20.932Z,9.14
2022-11-17T02:09:24.623Z,9.24
2022-11-17T02:12:28.211Z,9.14
2022-11-17T02:15:30.775Z,9.24
2022-11-17T02:18:33.083Z,9.23
2022-11-17T02:22:09.215Z,9.15
2022-11-17T02:25:33.384Z,9.28
2022-11-17T02:28:49.323Z,9.31
2022-11-17T02:32:04.259Z,9.30
2022-11-17T02:35:21.637Z,9.22
2022-11-17T02:38:32.403Z,9.30
2022-11-17T02:41:49.412Z,9.25
2022-11-17T02:44:58.367Z,9.20
2022-11-17T02:48:05.443Z,9.30
2022-11-17T02:51:13.275Z,9.18
2022-11-17T02:54:16.635Z,9.27
2022-11-17T02:57:49.598Z,9.18
2022-11-17T03:00:59.691Z,9.24
2022-11-17T03:04:26.008Z,9.22
2022-11-17T03:07:57.614Z,9.20
2022-11-17T03:11:05.349Z,9.17
2022-11-17T03:14:42.678Z,9.15
2022-11-17T03:17:56.882Z,9.10
2022-11-17T03:21:31.154Z,9.05
2022-11-17T03:24:50.346Z,9.01
2022-11-17T03:27:58.711Z,8.94
2022-11-17T03:31:04.193Z,8.83
2022-11-17T03:34:11.613Z,8.89
2022-11-17T03:37:18.872Z,8.82
2022-11-17T03:40:25.530Z,8.77
2022-11-17T03:43:30.073Z,8.62
2022-11-17T03:46:36.550Z,8.62
2022-11-17T03:49:45.266Z,8.60
2022-11-17T03:52:48.943Z,8.57
2022-11-17T03:56:11.567Z,8.50
2022-11-17T03:59:19.872Z,8.48
2022-11-17T04:02:23.946Z,8.46
2022-11-17T04:05:27.444Z,8.38
2022-11-17T04:08:30.939Z,8.47
2022-11-17T04:11:52.344Z,8.47
2022-11-17T04:15:13.069Z,8.46
2022-11-17T04:18:19.199Z,8.36
2022-11-17T04:21:21.511Z,8.46
2022-11-17T04:24:24.151Z,8.44
2022-11-17T04:27:45.030Z,8.44
2022-11-17T04:30:47.523Z,8.39
2022-11-17T04:33:51.854Z,8.33
2022-11-17T04:36:54.421Z,8.38
2022-11-17T04:39:56.649Z,8.47
2022-11-17T04:42:59.163Z,8.37
2022-11-17T04:46:01.430Z,8.35
2022-11-17T04:49:05.015Z,8.40
2022-11-17T04:52:07.472Z,8.41
2022-11-17T04:55:10.000Z,8.29
2022-11-17T04:58:12.276Z,8.40
2022-11-17T05:01:17.492Z,8.38
2022-11-17T05:04:39.930Z,8.34
2022-11-17T05:07:42.542Z,8.39
2022-11-17T05:11:05.014Z,8.40
2022-11-17T05:14:08.165Z,8.53
2022-11-17T05:17:11.802Z,8.55
2022-11-17T05:20:17.613Z,8.48
2022-11-17T05:23:49.116Z,8.60
2022-11-17T05:26:51.658Z,8.62
2022-11-17T05:29:53.973Z,8.63
2022-11-17T05:32:56.533Z,8.65
2022-11-17T05:35:58.907Z,8.47
2022-11-17T05:39:01.752Z,8.65
2022-11-17T05:42:04.156Z,8.64
2022-11-17T05:45:07.463Z,8.60
2022-11-17T05:48:09.688Z,8.58
2022-11-17T05:51:12.404Z,8.44
2022-11-17T05:54:14.717Z,8.53
2022-11-17T05:57:25.582Z,8.43
2022-11-17T06:00:29.438Z,8.54
2022-11-17T06:03:39.868Z,8.57
2022-11-17T06:06:42.083Z,8.56
2022-11-17T06:09:45.830Z,8.52
2022-11-17T06:12:48.171Z,8.63
2022-11-17T06:15:50.739Z,8.68
2022-11-17T06:19:08.792Z,8.59
2022-11-17T06:22:13.337Z,8.87
2022-11-17T06:25:18.670Z,8.86
2022-11-17T06:28:22.570Z,8.98
2022-11-17T06:31:27.965Z,9.06
2022-11-17T06:34:32.888Z,9.11
2022-11-17T06:37:35.299Z,9.23
2022-11-17T06:40:37.952Z,9.32
2022-11-17T06:43:40.212Z,9.34
2022-11-17T06:46:47.607Z,9.45
2022-11-17T06:49:51.130Z,9.50
2022-11-17T06:53:00.546Z,9.52
2022-11-17T06:56:07.471Z,9.53
2022-11-17T06:59:10.102Z,9.48
2022-11-17T07:02:12.392Z,9.42
2022-11-17T07:05:15.123Z,9.53
2022-11-17T07:08:19.028Z,9.55
2022-11-17T07:11:21.686Z,9.47
2022-11-17T07:14:23.932Z,9.61
2022-11-17T07:17:27.368Z,9.68
2022-11-17T07:20:29.623Z,9.76
2022-11-17T07:23:33.208Z,10.02
2022-11-17T07:26:35.578Z,10.33
2022-11-17T07:29:38.145Z,10.47
2022-11-17T07:32:40.583Z,10.80
2022-11-17T07:35:43.504Z,11.12
2022-11-17T07:38:45.808Z,11.18
2022-11-17T07:41:48.362Z,11.20
2022-11-17T07:44:50.718Z,11.19
2022-11-17T07:47:58.590Z,11.12
2022-11-17T07:51:02.045Z,11.05
2022-11-17T07:54:04.943Z,10.97
2022-11-17T07:57:07.631Z,10.85
2022-11-17T08:00:11.274Z,10.62
2022-11-17T08:03:14.195Z,10.73
2022-11-17T08:06:17.128Z,10.82
2022-11-17T08:09:19.486Z,11.02
2022-11-17T08:12:22.156Z,11.25
2022-11-17T08:15:24.698Z,11.44
2022-11-17T08:18:28.713Z,11.53
2022-11-17T08:21:31.106Z,11.58
2022-11-17T08:24:33.732Z,11.86
2022-11-17T08:27:36.016Z,12.06
2022-11-17T08:30:38.772Z,12.19
2022-11-17T08:33:41.040Z,12.16
2022-11-17T08:36:44.070Z,12.36
2022-11-17T08:39:46.341Z,12.37
2022-11-17T08:43:00.354Z,12.90
2022-11-17T08:46:03.930Z,12.66
2022-11-17T08:49:06.518Z,13.26
2022-11-17T08:52:08.782Z,13.79
2022-11-17T08:55:11.479Z,14.53
2022-11-17T08:58:13.812Z,14.58
2022-11-17T09:01:16.986Z,14.28
2022-11-17T09:04:19.531Z,14.42
2022-11-17T09:07:22.191Z,14.16
2022-11-17T09:10:25.229Z,14.31
2022-11-17T09:13:27.796Z,15.32
2022-11-17T09:16:30.120Z,16.34
2022-11-17T09:19:32.804Z,18.04
2022-11-17T09:22:35.069Z,19.02
2022-11-17T09:25:37.598Z,18.79
2022-11-17T09:28:40.510Z,19.07
2022-11-17T09:31:43.253Z,19.79
2022-11-17T09:34:45.794Z,18.63
2022-11-17T09:37:48.478Z,19.24
2022-11-17T09:40:51.280Z,19.55
2022-11-17T09:44:18.280Z,19.98
2022-11-17T09:47:46.103Z,20.76
2022-11-17T09:50:50.663Z,23.08
2022-11-17T09:53:59.671Z,25.18
2022-11-17T09:57:05.035Z,26.05
2022-11-17T10:00:21.015Z,27.77
2022-11-17T10:03:30.865Z,28.59
2022-11-17T10:06:33.192Z,29.39
2022-11-17T10:09:41.962Z,29.71
2022-11-17T10:12:50.718Z,29.87
2022-11-17T10:16:13.284Z,30.57
2022-11-17T10:19:24.574Z,29.53
2022-11-17T10:22:35.012Z,30.20
2022-11-17T10:25:48.583Z,30.52
2022-11-17T10:29:11.473Z,30.48
2022-11-17T10:32:15.229Z,30.83
2022-11-17T10:35:19.417Z,31.02
2022-11-17T10:38:23.198Z,29.55
2022-11-17T10:41:30.589Z,29.10
2022-11-17T10:44:33.901Z,28.61
2022-11-17T10:47:40.480Z,26.94
2022-11-17T10:51:19.553Z,25.52
2022-11-17T10:54:22.212Z,24.90
2022-11-17T10:57:26.890Z,22.22
2022-11-17T11:00:32.777Z,20.67
2022-11-17T11:03:35.916Z,18.32
2022-11-17T11:06:47.719Z,17.29
2022-11-17T11:09:56.253Z,16.46
2022-11-17T11:13:20.169Z,15.63
2022-11-17T11:16:25.521Z,15.46
2022-11-17T11:19:30.224Z,14.68
2022-11-17T11:22:42.289Z,14.59
2022-11-17T11:25:57.429Z,14.45
2022-11-17T11:29:21.277Z,14.67
2022-11-17T11:32:48.477Z,14.76
2022-11-17T11:36:11.402Z,15.09
2022-11-17T11:39:37.397Z,15.40
2022-11-17T11:42:58.763Z,15.50
2022-11-17T11:46:16.336Z,15.38
2022-11-17T11:49:34.112Z,15.33
2022-11-17T11:52:40.357Z,15.25
2022-11-17T11:55:46.947Z,15.28
2022-11-17T11:58:59.150Z,14.92
2022-11-17T12:02:24.580Z,14.75
2022-11-17T12:06:40.878Z,14.09
2022-11-17T12:09:46.136Z,13.56
2022-11-17T12:12:51.993Z,14.03
2022-11-17T12:16:18.295Z,14.09
2022-11-17T12:19:55.237Z,14.36
2022-11-17T12:23:19.819Z,14.60
2022-11-17T12:26:31.035Z,14.95
2022-11-17T12:29:48.413Z,15.07
2022-11-17T12:32:53.068Z,15.04
2022-11-17T12:36:29.695Z,14.76
2022-11-17T12:40:02.077Z,14.68
2022-11-17T12:43:14.659Z,14.70
2022-11-17T12:46:33.397Z,15.00
2022-11-17T12:50:03.126Z,16.61
2022-11-17T12:53:19.801Z,18.27
2022-11-17T12:56:43.605Z,19.28
2022-11-17T12:59:46.371Z,19.22
2022-11-17T13:03:10.855Z,17.01
2022-11-17T13:09:38.656Z,16.22
2022-11-17T13:12:41.421Z,15.55
2022-11-17T13:15:44.617Z,15.56
2022-11-17T13:18:49.019Z,15.05
2022-11-17T13:21:59.018Z,14.93
2022-11-17T13:25:13.017Z,14.88
2022-11-17T13:28:45.051Z,14.23
2022-11-17T13:31:47.816Z,13.93
2022-11-17T13:34:56.747Z,13.51
2022-11-17T13:38:18.497Z,13.11
2022-11-17T13:49:54.905Z,12.97
2022-11-17T13:53:18.760Z,12.87
2022-11-17T13:56:32.771Z,12.84
2022-11-17T13:59:38.499Z,12.55
2022-11-17T14:02:53.418Z,12.62
2022-11-17T14:05:59.139Z,12.42
2022-11-17T14:09:05.584Z,12.27
2022-11-17T14:12:10.766Z,12.19
2022-11-17T14:15:23.027Z,12.29
2022-11-17T14:18:29.130Z,12.28
2022-11-17T14:21:33.977Z,12.09
2022-11-17T14:24:38.117Z,12.23
2022-11-17T14:27:40.562Z,12.22
2022-11-17T14:30:43.693Z,12.20
2022-11-17T14:33:46.098Z,11.92
2022-11-17T14:36:55.354Z,12.15
2022-11-17T14:40:00.699Z,12.08
2022-11-17T14:43:03.272Z,11.88
2022-11-17T14:46:06.946Z,11.94
2022-11-17T14:49:09.677Z,11.87
2022-11-17T14:52:11.816Z,11.94
2022-11-17T14:55:14.789Z,11.93
2022-11-17T14:58:17.123Z,11.95
2022-11-17T15:01:28.387Z,11.89
2022-11-17T15:07:55.347Z,11.82
2022-11-17T15:10:58.365Z,11.93
2022-11-17T15:14:06.461Z,11.81
2022-11-17T15:17:13.939Z,11.76
2022-11-17T15:20:18.164Z,11.86
2022-11-17T15:23:20.469Z,11.86
2022-11-17T15:26:23.835Z,11.77
2022-11-17T15:29:26.562Z,11.63
2022-11-17T15:32:29.848Z,11.62
2022-11-17T15:35:32.448Z,11.73
2022-11-17T15:38:35.876Z,11.67
2022-11-17T15:41:38.279Z,11.42
2022-11-17T15:44:41.086Z,11.63
2022-11-17T15:47:43.367Z,11.58
2022-11-17T15:50:45.912Z,11.57
2022-11-17T15:53:49.808Z,11.39
2022-11-17T15:56:52.690Z,11.33
2022-11-17T15:59:55.069Z,11.43
2022-11-17T16:02:58.873Z,11.29
2022-11-17T16:06:01.864Z,11.41
2022-11-17T16:09:06.598Z,11.40
2022-11-17T16:12:13.496Z,10.97
2022-11-17T16:15:18.932Z,11.18
2022-11-17T16:18:22.232Z,11.05
2022-11-17T16:21:24.822Z,11.20
2022-11-17T16:24:27.864Z,11.34
2022-11-17T16:27:32.033Z,11.14
2022-11-17T16:30:35.851Z,11.32
2022-11-17T16:33:38.242Z,11.31
2022-11-17T16:36:42.687Z,11.29
2022-11-17T16:39:45.049Z,10.92
2022-11-17T16:42:47.666Z,11.31
2022-11-17T16:45:49.972Z,10.91
2022-11-17T16:48:54.247Z,11.03
2022-11-17T16:51:59.031Z,11.12
2022-11-17T16:55:05.282Z,11.02
2022-11-17T16:58:09.415Z,10.97
2022-11-17T17:01:13.894Z,11.07
2022-11-17T17:04:16.286Z,11.11
2022-11-17T17:07:19.152Z,10.88
2022-11-17T17:10:21.648Z,10.98
2022-11-17T17:13:24.217Z,10.80
2022-11-17T17:16:26.532Z,10.71
2022-11-17T17:19:29.335Z,10.66
2022-11-17T17:22:31.629Z,10.64
2022-11-17T17:25:34.525Z,10.64
2022-11-17T17:28:40.569Z,10.61
2022-11-17T17:31:43.398Z,10.39
2022-11-17T17:34:45.793Z,10.51
2022-11-17T17:37:48.566Z,10.36
2022-11-17T17:40:50.904Z,10.37
2022-11-17T17:43:59.245Z,10.56
2022-11-17T17:47:01.520Z,10.57
2022-11-17T17:50:04.352Z,10.55
2022-11-17T17:53:07.672Z,10.50
2022-11-17T17:56:12.810Z,10.48
2022-11-17T17:59:16.578Z,10.31
2022-11-17T18:02:19.608Z,10.52
2022-11-17T18:05:22.684Z,10.42
2022-11-17T18:08:24.975Z,10.32
2022-11-17T18:11:27.597Z,10.58
2022-11-17T18:14:29.856Z,10.61
2022-11-17T18:17:32.418Z,10.61
2022-11-17T18:20:35.418Z,10.50
2022-11-17T18:23:38.561Z,10.50
2022-11-17T18:26:41.322Z,10.51
2022-11-17T18:29:43.946Z,10.55
2022-11-17T18:32:46.263Z,10.66
2022-11-17T18:35:48.835Z,10.65
2022-11-17T18:38:52.797Z,10.70
2022-11-17T18:41:56.221Z,10.56
2022-11-17T18:44:58.568Z,10.67
2022-11-17T18:48:01.130Z,10.61
2022-11-17T18:51:19.017Z,10.64
2022-11-17T18:54:22.316Z,10.57
2022-11-17T18:57:24.640Z,10.54
2022-11-17T19:00:27.215Z,10.33
2022-11-17T19:03:29.459Z,10.45
2022-11-17T19:06:32.129Z,10.42
2022-11-17T19:09:34.650Z,10.41
2022-11-17T19:12:38.786Z,10.25
2022-11-17T19:15:41.483Z,10.29
2022-11-17T19:18:46.149Z,9.93
2022-11-17T19:21:48.334Z,10.19
2022-11-17T19:24:52.136Z,10.17
2022-11-17T19:27:54.579Z,10.10
2022-11-17T19:31:04.705Z,10.07
2022-11-17T19:34:07.389Z,10.01
2022-11-17T19:37:09.955Z,10.16
2022-11-17T19:40:12.632Z,10.05
2022-11-17T19:43:17.926Z,9.84
2022-11-17T19:46:20.694Z,10.00
2022-11-17T19:49:23.378Z,10.13
2022-11-17T19:52:27.128Z,9.98
2022-11-17T19:55:29.643Z,10.12
2022-11-17T19:58:31.865Z,10.15
2022-11-17T20:01:35.931Z,10.17
2022-11-17T20:04:39.693Z,10.15
2022-11-17T20:07:42.076Z,10.18
2022-11-17T20:10:44.825Z,10.20
2022-11-17T20:13:47.651Z,10.07
2022-11-17T20:16:50.206Z,10.17
2022-11-17T20:19:52.572Z,10.25
2022-11-17T20:22:55.785Z,10.22
2022-11-17T20:25:58.361Z,10.22
2022-11-17T20:29:01.582Z,10.19
2022-11-17T20:32:03.973Z,10.23
2022-11-17T20:35:06.951Z,10.02
2022-11-17T20:38:13.039Z,10.21
2022-11-17T20:41:20.952Z,10.13
2022-11-17T20:44:26.359Z,10.11
2022-11-17T20:47:29.615Z,10.02
2022-11-17T20:50:32.118Z,9.91
2022-11-17T20:53:35.410Z,9.99
2022-11-17T20:56:37.656Z,9.98
2022-11-17T20:59:40.667Z,9.96
2022-11-17T21:02:42.895Z,9.80
2022-11-17T21:05:58.384Z,9.93
2022-11-17T21:09:01.388Z,9.87
2022-11-17T21:12:04.088Z,9.89
2022-11-17T21:15:06.880Z,9.88
2022-11-17T21:18:26.124Z,9.89
2022-11-17T21:21:28.653Z,9.73
2022-11-17T21:24:31.240Z,9.79
2022-11-17T21:27:33.497Z,9.80
2022-11-17T21:30:36.079Z,9.60
2022-11-17T21:33:39.267Z,9.72
2022-11-17T21:36:42.329Z,9.73
2022-11-17T21:39:44.539Z,9.61
2022-11-17T21:42:47.114Z,9.72
2022-11-17T21:45:49.393Z,9.74
2022-11-17T21:48:53.671Z,9.75
2022-11-17T21:51:55.751Z,9.72
2022-11-17T21:54:59.193Z,9.71
2022-11-17T21:58:02.018Z,9.61
2022-11-17T22:01:15.612Z,9.61
2022-11-17T22:04:19.275Z,9.73
2022-11-17T22:07:21.681Z,9.77
2022-11-17T22:10:24.542Z,9.63
2022-11-17T22:13:26.797Z,9.62
2022-11-17T22:16:29.331Z,9.77
2022-11-17T22:19:33.701Z,9.80
2022-11-17T22:22:36.194Z,9.81
2022-11-17T22:25:45.318Z,9.80
2022-11-17T22:28:56.090Z,9.69
2022-11-17T22:31:58.329Z,9.67
2022-11-17T22:35:01.812Z,9.81
2022-11-17T22:38:04.369Z,9.70
2022-11-17T22:41:07.954Z,9.68
2022-11-17T22:44:13.811Z,9.72
2022-11-17T22:47:16.420Z,9.75
2022-11-17T22:50:18.777Z,9.81
2022-11-17T22:53:21.436Z,9.82
2022-11-17T22:56:23.785Z,9.74
2022-11-17T22:59:27.776Z,9.84
2022-11-17T23:02:30.032Z,9.83
2022-11-17T23:05:32.604Z,9.83
2022-11-17T23:08:34.908Z,9.69
2022-11-17T23:11:40.628Z,9.80
2022-11-17T23:14:43.218Z,9.79
2022-11-17T23:17:45.829Z,9.81
2022-11-17T23:20:48.541Z,9.80
2022-11-17T23:23:51.592Z,9.65
2022-11-17T23:26:53.952Z,9.74
2022-11-17T23:29:56.535Z,9.60
2022-11-17T23:32:58.858Z,9.72
2022-11-17T23:36:02.646Z,9.52
2022-11-17T23:39:05.095Z,9.72
2022-11-17T23:42:07.692Z,9.59
2022-11-17T23:45:11.821Z,9.62
2022-11-17T23:48:14.340Z,9.62
2022-11-17T23:51:19.925Z,9.59
2022-11-17T23:54:22.511Z,9.57
2022-11-17T23:57:24.746Z,9.50
